createdAt,value
2022-08-03T00:01:28.191Z,20.57
2022-08-03T00:03:55.282Z,20.57
2022-08-03T00:06:22.157Z,20.55
2022-08-03T00:08:48.975Z,20.53
2022-08-03T00:11:15.926Z,20.50
2022-08-03T00:13:42.908Z,20.50
2022-08-03T00:16:10.946Z,20.48
2022-08-03T00:18:38.223Z,20.47
2022-08-03T00:21:05.868Z,20.46
2022-08-03T00:23:51.887Z,20.46
2022-08-03T00:26:20.757Z,20.45
2022-08-03T00:28:47.946Z,20.45
2022-08-03T00:31:15.156Z,20.44
2022-08-03T00:33:57.934Z,20.42
2022-08-03T00:36:25.699Z,20.41
2022-08-03T00:38:52.508Z,20.38
2022-08-03T00:41:19.347Z,20.38
2022-08-03T00:43:47.699Z,20.37
2022-08-03T00:46:20.633Z,20.36
2022-08-03T00:48:52.513Z,20.35
2022-08-03T00:51:20.974Z,20.35
2022-08-03T00:53:48.209Z,20.33
2022-08-03T00:56:16.632Z,20.33
2022-08-03T00:58:47.405Z,20.32
2022-08-03T01:01:15.136Z,20.32
2022-08-03T01:03:42.243Z,20.32
2022-08-03T01:06:34.123Z,20.31
2022-08-03T01:09:09.786Z,20.29
2022-08-03T01:11:59.725Z,20.29
2022-08-03T01:14:34.730Z,20.29
2022-08-03T01:17:22.882Z,20.28
2022-08-03T01:20:08.345Z,20.28
2022-08-03T01:22:53.385Z,20.27
2022-08-03T01:25:58.393Z,20.26
2022-08-03T01:28:43.733Z,20.27
2022-08-03T01:31:12.320Z,20.27
2022-08-03T01:33:46.277Z,20.25
2022-08-03T01:36:16.385Z,20.24
2022-08-03T01:38:51.447Z,20.26
2022-08-03T01:41:21.971Z,20.24
2022-08-03T01:44:26.538Z,20.22
2022-08-03T01:46:40.715Z,20.22
2022-08-03T01:49:17.390Z,20.19
2022-08-03T01:52:02.831Z,20.18
2022-08-03T01:54:35.949Z,20.18
2022-08-03T01:57:03.494Z,20.17
2022-08-03T01:59:32.760Z,20.17
2022-08-03T02:02:15.311Z,20.14
2022-08-03T02:04:50.695Z,20.13
2022-08-03T02:07:18.494Z,20.13
2022-08-03T02:09:50.199Z,20.12
2022-08-03T02:12:19.088Z,20.13
2022-08-03T02:14:48.954Z,20.12
2022-08-03T02:17:16.647Z,20.11
2022-08-03T02:19:45.597Z,20.10
2022-08-03T02:22:14.791Z,20.10
2022-08-03T02:24:41.860Z,20.11
2022-08-03T02:27:34.046Z,20.08
2022-08-03T02:30:07.745Z,20.06
2022-08-03T02:32:40.602Z,20.06
2022-08-03T02:35:12.150Z,20.07
2022-08-03T02:37:49.364Z,20.05
2022-08-03T02:40:19.322Z,20.04
2022-08-03T02:42:47.781Z,20.05
2022-08-03T02:45:17.516Z,20.04
2022-08-03T02:47:53.478Z,20.02
2022-08-03T02:50:24.306Z,20.03
2022-08-03T02:52:53.487Z,20.03
2022-08-03T02:55:23.205Z,20.03
2022-08-03T02:57:51.947Z,20.03
2022-08-03T03:00:28.337Z,20.01
2022-08-03T03:03:02.825Z,20.00
2022-08-03T03:05:54.898Z,19.99
2022-08-03T03:08:26.821Z,19.99
2022-08-03T03:10:58.597Z,19.98
2022-08-03T03:13:27.263Z,19.96
2022-08-03T03:15:56.800Z,19.97
2022-08-03T03:18:25.468Z,19.96
2022-08-03T03:20:54.352Z,19.96
2022-08-03T03:23:25.804Z,19.94
2022-08-03T03:25:53.639Z,19.94
2022-08-03T03:28:21.044Z,19.93
2022-08-03T03:30:53.212Z,19.92
2022-08-03T03:33:21.298Z,19.92
2022-08-03T03:35:48.734Z,19.90
2022-08-03T03:38:15.597Z,19.91
2022-08-03T03:40:42.873Z,19.88
2022-08-03T03:43:11.888Z,19.88
2022-08-03T03:45:41.530Z,19.87
2022-08-03T03:48:09.074Z,19.86
2022-08-03T03:50:37.758Z,19.85
2022-08-03T03:53:05.165Z,19.86
2022-08-03T03:55:36.788Z,19.85
2022-08-03T03:58:23.636Z,19.85
2022-08-03T04:00:54.195Z,19.86
2022-08-03T04:03:21.233Z,19.85
2022-08-03T04:06:06.895Z,19.83
2022-08-03T04:08:52.333Z,19.84
2022-08-03T04:11:29.476Z,19.83
2022-08-03T04:14:02.059Z,19.83
2022-08-03T04:16:32.745Z,19.83
2022-08-03T04:19:03.444Z,19.81
2022-08-03T04:21:32.381Z,19.80
2022-08-03T04:24:02.797Z,19.79
2022-08-03T04:26:34.093Z,19.79
2022-08-03T04:29:02.006Z,19.77
2022-08-03T04:31:30.540Z,19.78
2022-08-03T04:33:58.093Z,19.78
2022-08-03T04:36:28.156Z,19.78
2022-08-03T04:39:05.541Z,19.78
2022-08-03T04:41:32.726Z,19.76
2022-08-03T04:44:21.089Z,19.80
2022-08-03T04:46:57.149Z,19.74
2022-08-03T04:49:24.844Z,19.59
2022-08-03T04:51:52.962Z,19.47
2022-08-03T04:54:19.930Z,19.36
2022-08-03T04:56:46.794Z,19.30
2022-08-03T04:59:13.842Z,19.23
2022-08-03T05:01:42.860Z,19.20
2022-08-03T05:04:10.077Z,19.15
2022-08-03T05:06:37.012Z,19.14
2022-08-03T05:09:14.841Z,19.11
2022-08-03T05:11:41.702Z,19.05
2022-08-03T05:14:08.552Z,19.02
2022-08-03T05:16:35.463Z,19.15
2022-08-03T05:19:02.313Z,19.28
2022-08-03T05:21:51.135Z,19.36
2022-08-03T05:24:16.562Z,19.42
2022-08-03T05:26:43.451Z,19.49
2022-08-03T05:29:10.307Z,19.53
2022-08-03T05:31:37.198Z,19.57
2022-08-03T05:34:04.159Z,19.61
2022-08-03T05:36:30.991Z,19.64
2022-08-03T05:39:02.462Z,19.66
2022-08-03T05:41:37.001Z,19.67
2022-08-03T05:44:05.216Z,19.70
2022-08-03T05:46:32.438Z,19.72
2022-08-03T05:48:59.391Z,19.74
2022-08-03T05:51:26.446Z,19.77
2022-08-03T05:53:53.466Z,19.77
2022-08-03T05:56:24.603Z,19.78
2022-08-03T05:58:52.749Z,19.80
2022-08-03T06:01:24.195Z,19.82
2022-08-03T06:03:52.495Z,19.83
2022-08-03T06:06:19.640Z,19.86
2022-08-03T06:08:47.007Z,19.86
2022-08-03T06:11:13.919Z,19.88
2022-08-03T06:13:41.434Z,19.91
2022-08-03T06:16:09.193Z,19.91
2022-08-03T06:18:36.461Z,19.91
2022-08-03T06:21:14.365Z,19.92
2022-08-03T06:23:52.970Z,19.95
2022-08-03T06:26:22.149Z,19.85
2022-08-03T06:28:52.424Z,19.77
2022-08-03T06:31:21.724Z,19.71
2022-08-03T06:34:30.461Z,19.66
2022-08-03T06:36:35.484Z,19.66
2022-08-03T06:39:03.500Z,19.69
2022-08-03T06:41:30.492Z,19.74
2022-08-03T06:44:04.662Z,19.78
2022-08-03T06:46:31.792Z,19.78
2022-08-03T06:48:58.673Z,19.76
2022-08-03T06:52:37.461Z,19.75
2022-08-03T06:54:12.870Z,19.73
2022-08-03T06:56:39.735Z,19.72
2022-08-03T06:59:06.593Z,19.72
2022-08-03T07:01:33.564Z,19.72
2022-08-03T07:04:01.446Z,19.70
2022-08-03T07:06:28.322Z,19.69
2022-08-03T07:08:59.192Z,19.69
2022-08-03T07:11:26.787Z,19.67
2022-08-03T07:13:53.772Z,19.67
2022-08-03T07:16:20.795Z,19.66
2022-08-03T07:18:48.738Z,19.66
2022-08-03T07:21:17.013Z,19.65
2022-08-03T07:23:43.944Z,19.66
2022-08-03T07:26:10.789Z,19.66
2022-08-03T07:28:38.074Z,19.65
2022-08-03T07:31:04.969Z,19.63
2022-08-03T07:33:31.889Z,19.63
2022-08-03T07:35:58.850Z,19.61
2022-08-03T07:38:25.801Z,19.60
2022-08-03T07:40:54.098Z,19.61
2022-08-03T07:43:21.264Z,19.59
2022-08-03T07:45:48.145Z,19.58
2022-08-03T07:48:15.111Z,19.58
2022-08-03T07:50:42.149Z,19.57
2022-08-03T07:53:09.132Z,19.58
2022-08-03T07:55:36.292Z,19.57
2022-08-03T07:58:05.161Z,19.57
2022-08-03T08:00:32.773Z,19.57
2022-08-03T08:02:59.806Z,19.56
2022-08-03T08:05:28.513Z,19.57
2022-08-03T08:07:55.833Z,19.55
2022-08-03T08:10:23.084Z,19.54
2022-08-03T08:12:50.776Z,19.54
2022-08-03T08:15:18.034Z,19.54
2022-08-03T08:17:52.272Z,19.53
2022-08-03T08:20:27.851Z,19.53
2022-08-03T08:23:01.397Z,19.52
2022-08-03T08:25:29.885Z,19.53
2022-08-03T08:28:30.056Z,19.51
2022-08-03T08:30:45.110Z,19.51
2022-08-03T08:33:22.689Z,19.51
2022-08-03T08:35:52.187Z,19.51
2022-08-03T08:38:19.328Z,19.49
2022-08-03T08:40:46.566Z,19.50
2022-08-03T08:43:13.572Z,19.50
2022-08-03T08:45:41.686Z,19.50
2022-08-03T08:48:10.826Z,19.49
2022-08-03T08:50:39.112Z,19.48
2022-08-03T08:53:09.695Z,19.49
2022-08-03T08:55:56.943Z,19.49
2022-08-03T08:58:28.865Z,19.51
2022-08-03T09:00:56.426Z,19.52
2022-08-03T09:03:30.181Z,19.51
2022-08-03T09:05:59.938Z,19.52
2022-08-03T09:08:27.193Z,19.51
2022-08-03T09:10:54.156Z,19.49
2022-08-03T09:13:21.446Z,19.51
2022-08-03T09:15:59.109Z,19.51
2022-08-03T09:18:32.777Z,19.50
2022-08-03T09:21:36.765Z,19.50
2022-08-03T09:24:10.262Z,19.50
2022-08-03T09:26:40.215Z,19.51
2022-08-03T09:29:14.964Z,19.50
2022-08-03T09:31:45.339Z,19.50
2022-08-03T09:34:17.468Z,19.50
2022-08-03T09:36:46.108Z,19.51
2022-08-03T09:39:41.312Z,19.49
2022-08-03T09:42:18.554Z,19.50
2022-08-03T09:44:48.528Z,19.50
2022-08-03T09:47:28.373Z,19.50
2022-08-03T09:50:04.879Z,19.51
2022-08-03T09:52:39.007Z,19.51
2022-08-03T09:55:23.816Z,19.51
2022-08-03T09:58:10.791Z,19.51
2022-08-03T10:01:00.753Z,19.51
2022-08-03T10:03:30.328Z,19.51
2022-08-03T10:05:59.922Z,19.52
2022-08-03T10:08:27.144Z,19.51
2022-08-03T10:10:55.028Z,19.52
2022-08-03T10:13:23.437Z,19.53
2022-08-03T10:16:23.238Z,19.54
2022-08-03T10:18:38.108Z,19.56
2022-08-03T10:21:10.929Z,19.57
2022-08-03T10:23:40.355Z,19.57
2022-08-03T10:26:08.591Z,19.60
2022-08-03T10:28:44.476Z,19.64
2022-08-03T10:31:14.371Z,19.65
2022-08-03T10:33:50.689Z,19.65
2022-08-03T10:36:23.634Z,19.65
2022-08-03T10:38:56.877Z,19.65
2022-08-03T10:41:27.116Z,19.65
2022-08-03T10:44:05.821Z,19.65
2022-08-03T10:46:34.892Z,19.66
2022-08-03T10:49:02.531Z,19.68
2022-08-03T10:51:32.440Z,19.69
2022-08-03T10:54:01.950Z,19.70
2022-08-03T10:56:54.349Z,19.71
2022-08-03T10:59:46.625Z,19.70
2022-08-03T11:02:15.227Z,19.72
2022-08-03T11:04:43.211Z,19.76
2022-08-03T11:07:23.534Z,19.76
2022-08-03T11:09:56.122Z,19.78
2022-08-03T11:12:32.451Z,19.80
2022-08-03T11:15:06.061Z,19.83
2022-08-03T11:17:46.322Z,19.83
2022-08-03T11:20:44.960Z,19.88
2022-08-03T11:23:12.415Z,19.91
2022-08-03T11:26:12.695Z,19.94
2022-08-03T11:28:42.012Z,19.96
2022-08-03T11:31:48.858Z,19.96
2022-08-03T11:34:15.005Z,19.96
2022-08-03T11:37:23.273Z,19.98
2022-08-03T11:39:53.311Z,19.98
2022-08-03T11:42:23.124Z,20.01
2022-08-03T11:44:55.202Z,20.02
2022-08-03T11:47:23.265Z,20.04
2022-08-03T11:49:52.419Z,20.06
2022-08-03T11:52:27.147Z,20.06
2022-08-03T11:54:57.165Z,20.09
2022-08-03T11:59:17.091Z,20.11
2022-08-03T12:00:27.433Z,20.13
2022-08-03T12:02:56.600Z,20.15
2022-08-03T12:05:39.769Z,20.18
2022-08-03T12:08:08.655Z,20.20
2022-08-03T12:10:36.341Z,20.20
2022-08-03T12:13:56.627Z,20.22
2022-08-03T12:15:59.504Z,20.25
2022-08-03T12:18:26.671Z,20.25
2022-08-03T12:21:03.592Z,20.27
2022-08-03T12:23:32.081Z,20.28
2022-08-03T12:26:10.847Z,20.32
2022-08-03T12:28:38.645Z,20.33
2022-08-03T12:31:08.343Z,20.34
2022-08-03T12:33:58.919Z,20.35
2022-08-03T12:36:27.088Z,20.36
2022-08-03T12:39:07.866Z,20.37
2022-08-03T12:41:39.840Z,20.36
2022-08-03T12:44:08.316Z,20.37
2022-08-03T12:46:47.033Z,20.35
2022-08-03T12:49:17.700Z,20.36
2022-08-03T12:51:44.708Z,20.39
2022-08-03T12:54:24.733Z,20.44
2022-08-03T12:57:03.589Z,20.43
2022-08-03T12:59:35.161Z,20.39
2022-08-03T13:02:09.128Z,20.38
2022-08-03T13:04:39.012Z,20.41
2022-08-03T13:07:14.091Z,20.39
2022-08-03T13:09:45.961Z,20.37
2022-08-03T13:12:15.194Z,20.43
2022-08-03T13:14:43.542Z,20.40
2022-08-03T13:17:11.000Z,20.38
2022-08-03T13:19:39.491Z,20.37
2022-08-03T13:22:14.813Z,20.39
2022-08-03T13:24:43.407Z,20.36
2022-08-03T13:28:12.435Z,20.36
2022-08-03T13:29:58.011Z,20.36
2022-08-03T13:32:25.257Z,20.37
2022-08-03T13:34:52.324Z,20.35
2022-08-03T13:37:19.400Z,20.37
2022-08-03T13:39:57.265Z,20.36
2022-08-03T13:42:26.580Z,20.38
2022-08-03T13:44:53.687Z,20.40
2022-08-03T13:47:23.366Z,20.40
2022-08-03T13:50:01.403Z,20.44
2022-08-03T13:52:35.013Z,20.44
2022-08-03T13:55:03.638Z,20.46
2022-08-03T13:58:04.970Z,20.43
2022-08-03T14:00:27.455Z,20.46
2022-08-03T14:03:13.113Z,20.45
2022-08-03T14:05:41.642Z,20.46
2022-08-03T14:08:09.106Z,20.44
2022-08-03T14:10:44.337Z,20.45
2022-08-03T14:13:16.671Z,20.45
2022-08-03T14:15:50.369Z,20.46
2022-08-03T14:18:29.291Z,20.46
2022-08-03T14:21:05.818Z,20.44
2022-08-03T14:23:40.921Z,20.45
2022-08-03T14:26:09.780Z,20.45
2022-08-03T14:28:37.067Z,20.43
2022-08-03T14:31:08.160Z,20.45
2022-08-03T14:33:42.394Z,20.45
2022-08-03T14:36:09.364Z,20.43
2022-08-03T14:38:36.417Z,20.43
2022-08-03T14:41:03.523Z,20.43
2022-08-03T14:43:33.767Z,20.43
2022-08-03T14:46:01.293Z,20.42
2022-08-03T14:50:32.949Z,20.42
2022-08-03T14:51:15.248Z,20.41
2022-08-03T14:53:42.242Z,20.43
2022-08-03T14:56:10.692Z,20.42
2022-08-03T14:58:38.329Z,20.44
2022-08-03T15:02:05.134Z,20.45
2022-08-03T15:03:52.411Z,20.46
2022-08-03T15:06:19.463Z,20.44
2022-08-03T15:09:00.503Z,20.45
2022-08-03T15:11:33.645Z,20.43
2022-08-03T15:14:00.568Z,20.44
2022-08-03T15:16:29.865Z,20.44
2022-08-03T15:18:57.115Z,20.46
2022-08-03T15:21:47.227Z,20.45
2022-08-03T15:24:14.946Z,20.45
2022-08-03T15:26:42.021Z,20.45
2022-08-03T15:29:09.176Z,20.45
2022-08-03T15:31:56.122Z,20.45
2022-08-03T15:34:23.043Z,20.45
2022-08-03T15:36:49.988Z,20.46
2022-08-03T15:39:17.029Z,20.49
2022-08-03T15:41:43.980Z,20.47
2022-08-03T15:44:10.951Z,20.46
2022-08-03T15:46:38.050Z,20.45
2022-08-03T15:49:05.010Z,20.46
2022-08-03T15:51:31.899Z,20.45
2022-08-03T15:53:58.850Z,20.45
2022-08-03T15:56:27.211Z,20.46
2022-08-03T15:59:09.201Z,20.46
2022-08-03T16:01:40.533Z,20.46
2022-08-03T16:04:07.712Z,20.46
2022-08-03T16:06:36.322Z,20.44
2022-08-03T16:09:23.521Z,20.42
2022-08-03T16:11:55.913Z,20.44
2022-08-03T16:14:34.350Z,20.46
2022-08-03T16:17:07.331Z,20.48
2022-08-03T16:19:34.299Z,20.50
2022-08-03T16:22:03.255Z,20.49
2022-08-03T16:24:30.383Z,20.50
2022-08-03T16:26:57.493Z,20.46
2022-08-03T16:29:24.516Z,20.49
2022-08-03T16:31:52.500Z,20.48
2022-08-03T16:34:20.237Z,20.47
2022-08-03T16:36:47.203Z,20.48
2022-08-03T16:39:14.263Z,20.46
2022-08-03T16:41:54.273Z,20.45
2022-08-03T16:44:31.387Z,20.46
2022-08-03T16:46:59.736Z,20.46
2022-08-03T16:49:54.832Z,20.46
2022-08-03T16:52:13.894Z,20.40
2022-08-03T16:54:44.652Z,20.40
2022-08-03T16:57:56.537Z,20.39
2022-08-03T17:00:09.785Z,20.39
2022-08-03T17:02:37.193Z,20.38
2022-08-03T17:05:05.368Z,20.33
2022-08-03T17:07:32.449Z,20.31
2022-08-03T17:10:01.695Z,20.26
2022-08-03T17:12:28.809Z,20.27
2022-08-03T17:14:57.040Z,20.26
2022-08-03T17:17:43.006Z,20.28
2022-08-03T17:20:29.743Z,20.27
2022-08-03T17:23:03.989Z,20.27
2022-08-03T17:26:01.782Z,20.24
2022-08-03T17:28:49.514Z,20.26
2022-08-03T17:31:23.394Z,20.28
2022-08-03T17:34:01.066Z,20.29
2022-08-03T17:36:47.558Z,20.29
2022-08-03T17:39:30.798Z,20.29
2022-08-03T17:42:29.469Z,20.29
2022-08-03T17:44:54.202Z,20.30
2022-08-03T17:47:21.766Z,20.32
2022-08-03T17:49:49.784Z,20.31
2022-08-03T17:52:42.235Z,20.34
2022-08-03T17:55:57.714Z,20.34
2022-08-03T17:58:13.921Z,20.32
2022-08-03T18:01:04.501Z,20.32
2022-08-03T18:03:59.297Z,20.33
2022-08-03T18:06:31.610Z,20.33
2022-08-03T18:09:00.071Z,20.31
2022-08-03T18:11:35.717Z,20.27
2022-08-03T18:14:15.999Z,20.25
2022-08-03T18:16:56.167Z,20.24
2022-08-03T18:20:03.343Z,20.25
2022-08-03T18:22:13.518Z,20.29
2022-08-03T18:24:42.836Z,20.32
2022-08-03T18:27:16.079Z,20.33
2022-08-03T18:29:47.118Z,20.32
2022-08-03T18:32:25.410Z,20.35
2022-08-03T18:34:56.399Z,20.35
2022-08-03T18:37:26.017Z,20.38
2022-08-03T18:39:58.018Z,20.40
2022-08-03T18:42:25.789Z,20.43
2022-08-03T18:44:56.135Z,20.47
2022-08-03T18:47:52.577Z,20.48
2022-08-03T18:50:50.642Z,20.51
2022-08-03T18:53:24.143Z,20.48
2022-08-03T18:56:50.780Z,20.43
2022-08-03T18:59:51.305Z,20.48
2022-08-03T19:02:25.731Z,20.50
2022-08-03T19:04:55.146Z,20.44
2022-08-03T19:07:35.867Z,20.40
2022-08-03T19:10:09.545Z,20.38
2022-08-03T19:12:47.923Z,20.33
2022-08-03T19:15:16.110Z,20.30
2022-08-03T19:17:52.814Z,20.29
2022-08-03T19:20:27.227Z,20.32
2022-08-03T19:22:57.963Z,20.42
2022-08-03T19:25:34.261Z,20.49
2022-08-03T19:28:06.323Z,20.54
2022-08-03T19:30:53.361Z,20.59
2022-08-03T19:33:22.805Z,20.63
2022-08-03T19:38:38.697Z,20.68
2022-08-03T19:41:09.670Z,20.67
2022-08-03T19:44:05.075Z,20.67
2022-08-03T19:46:41.653Z,20.61
2022-08-03T19:49:15.859Z,20.65
2022-08-03T19:51:58.580Z,20.64
2022-08-03T19:54:45.799Z,20.65
2022-08-03T19:57:23.323Z,20.66
2022-08-03T19:59:52.858Z,20.67
2022-08-03T20:02:26.265Z,20.69
2022-08-03T20:04:57.727Z,20.71
2022-08-03T20:07:30.607Z,20.71
2022-08-03T20:10:01.671Z,20.73
2022-08-03T20:12:35.579Z,20.72
2022-08-03T20:15:07.176Z,20.73
2022-08-03T20:17:56.566Z,20.73
2022-08-03T20:20:30.175Z,20.73
2022-08-03T20:22:59.084Z,20.74
2022-08-03T20:25:37.947Z,20.61
2022-08-03T20:28:15.786Z,20.61
2022-08-03T20:30:46.366Z,20.63
2022-08-03T20:33:19.055Z,20.63
2022-08-03T20:35:49.614Z,20.66
2022-08-03T20:38:19.654Z,20.67
2022-08-03T20:40:51.569Z,20.67
2022-08-03T20:43:20.010Z,20.68
2022-08-03T20:45:59.851Z,20.71
2022-08-03T20:48:37.585Z,20.70
2022-08-03T20:51:19.291Z,20.69
2022-08-03T20:53:57.292Z,20.68
2022-08-03T20:56:33.695Z,20.67
2022-08-03T20:59:07.462Z,20.66
2022-08-03T21:01:42.419Z,20.66
2022-08-03T21:04:13.583Z,20.65
2022-08-03T21:06:53.103Z,20.67
2022-08-03T21:09:33.597Z,20.67
2022-08-03T21:12:15.470Z,20.63
2022-08-03T21:13:09.782Z,20.66
2022-08-03T21:15:05.987Z,20.58
2022-08-03T21:17:41.036Z,20.55
2022-08-03T21:20:11.505Z,20.52
2022-08-03T21:22:43.105Z,20.50
2022-08-03T21:25:12.941Z,20.46
2022-08-03T21:27:41.465Z,20.44
2022-08-03T21:30:13.083Z,20.43
2022-08-03T21:32:43.662Z,20.41
2022-08-03T21:35:11.291Z,20.37
2022-08-03T21:37:41.030Z,20.37
2022-08-03T21:40:11.523Z,20.35
2022-08-03T21:42:41.386Z,20.33
2022-08-03T21:45:16.884Z,20.33
2022-08-03T21:47:45.601Z,20.30
2022-08-03T21:50:14.227Z,20.32
2022-08-03T21:52:47.060Z,20.31
2022-08-03T21:55:18.661Z,20.31
2022-08-03T21:57:54.154Z,20.28
2022-08-03T22:00:23.505Z,20.26
2022-08-03T22:02:58.118Z,20.24
2022-08-03T22:05:28.934Z,20.22
2022-08-03T22:08:11.088Z,20.23
2022-08-03T22:10:38.793Z,20.21
2022-08-03T22:13:07.352Z,20.20
2022-08-03T22:15:34.904Z,20.19
2022-08-03T22:18:04.991Z,20.18
2022-08-03T22:20:32.792Z,20.16
2022-08-03T22:23:04.053Z,20.13
2022-08-03T22:25:34.318Z,20.13
2022-08-03T22:28:06.970Z,20.13
2022-08-03T22:30:34.645Z,20.12
2022-08-03T22:33:04.919Z,20.10
2022-08-03T22:35:47.468Z,20.09
2022-08-03T22:38:15.900Z,20.06
2022-08-03T22:40:43.518Z,20.07
2022-08-03T22:43:10.708Z,20.04
2022-08-03T22:46:06.351Z,20.05
2022-08-03T22:48:26.966Z,20.06
2022-08-03T22:50:56.407Z,20.04
2022-08-03T22:53:23.794Z,20.04
2022-08-03T22:55:52.418Z,20.05
2022-08-03T22:58:21.345Z,20.02
2022-08-03T23:00:54.095Z,20.03
2022-08-03T23:03:58.678Z,20.03
2022-08-03T23:06:15.759Z,20.01
2022-08-03T23:08:46.693Z,20.02
2022-08-03T23:11:17.179Z,20.03
2022-08-03T23:13:47.419Z,20.03
2022-08-03T23:16:16.598Z,20.03
2022-08-03T23:18:56.637Z,20.01
2022-08-03T23:21:53.989Z,19.97
2022-08-03T23:24:28.484Z,19.96
2022-08-03T23:26:59.100Z,19.94
2022-08-03T23:29:29.717Z,19.92
2022-08-03T23:31:57.887Z,19.93
2022-08-03T23:34:44.113Z,19.91
2022-08-03T23:37:14.378Z,19.91
2022-08-03T23:39:45.192Z,19.89
2022-08-03T23:42:15.270Z,19.90
2022-08-03T23:44:43.921Z,19.90
2022-08-03T23:47:12.473Z,19.91
2022-08-03T23:49:39.952Z,19.94
2022-08-03T23:52:15.022Z,19.93
2022-08-03T23:54:47.701Z,19.91
2022-08-03T23:57:50.748Z,19.88
